Time;durP1;ratioP1;P1;durP2;ratioP2;P2;SDS_P1;SDS_P2;PMS_P1;PMS_P2;Temp;Humidity;BMP_temperature;BMP_pressure;BME280_temperature;BME280_humidity;BME280_pressure;Samples;Min_cycle;Max_cycle;Signal;HPM_P1;HPM_P2
2022/08/24 00:01:00;;;;;;;133.43;78.70;;;17.50;99.90;;;;;;5035198;28;20132;-25
2022/08/24 00:03:26;;;;;;;222.88;88.82;;;15.10;99.90;;;;;;5043312;28;20099;-25
2022/08/24 00:05:52;;;;;;;83.38;57.25;;;15.10;99.90;;;;;;5054947;28;20048;-25
2022/08/24 00:08:19;;;;;;;103.85;62.45;;;17.20;99.90;;;;;;5053107;28;20063;-25
2022/08/24 00:10:45;;;;;;;93.22;57.15;;;15.10;99.90;;;;;;5053794;28;20039;-25
2022/08/24 00:13:11;;;;;;;86.28;58.38;;;15.00;99.90;;;;;;5052861;28;20092;-26
2022/08/24 00:15:37;;;;;;;103.72;66.53;;;17.60;99.90;;;;;;5038993;28;20080;-25
2022/08/24 00:18:03;;;;;;;110.53;72.82;;;17.60;99.90;;;;;;5053680;28;20040;-25
2022/08/24 00:20:29;;;;;;;131.80;74.68;;;16.20;99.90;;;;;;5054034;28;20402;-25
2022/08/24 00:22:55;;;;;;;101.65;66.97;;;15.30;99.90;;;;;;5053650;28;20040;-25
2022/08/24 00:25:21;;;;;;;162.65;91.40;;;16.30;99.90;;;;;;5054822;28;20049;-25
2022/08/24 00:27:46;;;;;;;153.85;85.43;;;15.50;99.90;;;;;;5053766;28;20087;-25
2022/08/24 00:30:19;;;;;;;134.55;78.63;;;18.10;99.90;;;;;;5054299;28;20494;-25
2022/08/24 00:32:46;;;;;;;130.70;76.20;;;18.10;99.90;;;;;;5054481;28;20052;-26
2022/08/24 00:35:15;;;;;;;136.80;79.00;;;18.20;99.90;;;;;;5053064;28;20044;-25
2022/08/24 00:37:40;;;;;;;182.85;99.00;;;16.10;99.90;;;;;;5055020;28;20082;-25
2022/08/24 00:40:16;;;;;;;114.38;66.85;;;17.80;99.90;;;;;;5053022;28;20060;-25
2022/08/24 00:42:41;;;;;;;127.25;74.55;;;16.20;99.90;;;;;;5053715;28;20075;-26
2022/08/24 00:45:09;;;;;;;125.63;72.80;;;17.00;99.90;;;;;;5053680;28;20502;-25
2022/08/24 00:47:53;;;;;;;89.65;57.15;;;15.40;99.90;;;;;;5055641;28;20084;-25
2022/08/24 00:50:22;;;;;;;;;;;18.00;99.90;;;;;;5041223;28;20072;-23
2022/08/24 00:52:56;;;;;;;63.40;48.90;;;17.40;99.90;;;;;;5054261;28;20010;-24
2022/08/24 00:55:28;;;;;;;66.25;49.47;;;15.70;99.90;;;;;;5053682;28;20045;-24
2022/08/24 00:57:59;;;;;;;80.97;57.10;;;17.60;99.90;;;;;;5050986;28;20380;-23
2022/08/24 01:00:31;;;;;;;55.85;46.00;;;14.70;99.90;;;;;;5053795;28;20522;-23
2022/08/24 01:03:03;;;;;;;49.15;43.42;;;17.50;99.90;;;;;;5053076;28;20044;-24
2022/08/24 01:05:30;;;;;;;51.65;45.65;;;17.40;99.90;;;;;;5054130;28;20129;-23
2022/08/24 01:07:57;;;;;;;45.67;41.17;;;14.70;99.90;;;;;;5052249;28;20057;-24
2022/08/24 01:10:25;;;;;;;55.47;48.72;;;17.00;99.90;;;;;;5054121;28;20052;-24
2022/08/24 01:12:56;;;;;;;91.63;67.40;;;17.20;99.90;;;;;;5050863;28;20052;-24
2022/08/24 01:15:22;;;;;;;54.92;48.22;;;15.70;99.90;;;;;;5039968;28;20037;-24
2022/08/24 01:20:34;;;;;;;59.25;51.33;;;15.60;99.90;;;;;;5053456;28;20124;-24
2022/08/24 01:23:26;;;;;;;65.22;56.38;;;15.30;99.90;;;;;;5053377;28;20087;-24
2022/08/24 01:25:52;;;;;;;53.72;47.90;;;15.60;99.90;;;;;;5053453;28;20041;-28
2022/08/24 01:28:20;;;;;;;150.25;74.60;;;17.10;99.90;;;;;;5053582;28;20052;-27
2022/08/24 01:30:46;;;;;;;75.90;55.65;;;16.10;99.90;;;;;;5052070;28;20073;-26
2022/08/24 01:33:22;;;;;;;123.65;73.65;;;15.40;99.90;;;;;;5054133;28;20489;-26
2022/08/24 01:35:47;;;;;;;101.75;68.05;;;15.30;99.90;;;;;;5054157;28;20372;-26
2022/08/24 01:38:14;;;;;;;73.30;54.05;;;14.40;99.90;;;;;;5054090;28;20052;-25
2022/08/24 01:40:45;;;;;;;78.32;55.92;;;14.40;99.90;;;;;;5053495;28;20052;-25
2022/08/24 01:43:12;;;;;;;44.88;40.03;;;15.30;99.90;;;;;;5054409;28;20059;-25
2022/08/24 01:45:38;;;;;;;72.50;58.38;;;14.90;99.90;;;;;;5053977;28;20525;-25
2022/08/24 01:48:04;;;;;;;58.90;50.03;;;16.60;99.90;;;;;;5053145;28;20490;-25
2022/08/24 01:50:30;;;;;;;55.92;49.60;;;16.70;99.90;;;;;;5053951;28;20095;-25
2022/08/24 01:53:00;;;;;;;76.47;63.65;;;14.80;99.90;;;;;;5052828;28;20045;-26
2022/08/24 01:55:27;;;;;;;75.60;61.63;;;14.20;99.90;;;;;;5048469;28;20041;-26
2022/08/24 01:57:53;;;;;;;137.95;91.78;;;16.40;99.90;;;;;;5051554;28;20052;-25
2022/08/24 02:00:19;;;;;;;113.70;81.38;;;16.90;99.90;;;;;;5054027;28;20041;-25
2022/08/24 02:02:45;;;;;;;94.68;67.65;;;14.70;99.90;;;;;;5052749;28;20045;-26
2022/08/24 02:05:13;;;;;;;1025.47;141.35;;;17.10;99.90;;;;;;5052300;28;20406;-25
2022/08/24 02:07:40;;;;;;;1543.18;145.90;;;17.00;99.90;;;;;;5052000;28;20399;-26
2022/08/24 02:10:08;;;;;;;188.48;69.47;;;16.90;99.90;;;;;;5052534;28;20114;-25
2022/08/24 02:12:43;;;;;;;1046.80;128.95;;;16.40;99.90;;;;;;5046703;28;20049;-26
2022/08/24 02:15:17;;;;;;;112.80;68.40;;;14.60;99.90;;;;;;5039771;28;20076;-26
2022/08/24 02:17:43;;;;;;;41.33;37.47;;;13.60;99.90;;;;;;5045451;28;20049;-26
2022/08/24 02:20:09;;;;;;;56.25;49.67;;;16.00;99.90;;;;;;5052699;28;20045;-26
2022/08/24 02:22:35;;;;;;;73.18;53.58;;;16.20;99.90;;;;;;5049904;28;20049;-26
2022/08/24 02:25:00;;;;;;;132.63;74.88;;;14.80;99.90;;;;;;5051118;28;20410;-26
2022/08/24 02:27:26;;;;;;;152.57;80.53;;;16.00;99.90;;;;;;5051671;28;20048;-26
2022/08/24 02:29:52;;;;;;;72.50;54.38;;;16.10;99.90;;;;;;5053475;28;20045;-26
2022/08/24 02:32:17;;;;;;;57.35;47.20;;;14.10;99.90;;;;;;5051191;28;20044;-26
2022/08/24 02:34:43;;;;;;;61.00;50.53;;;14.10;99.90;;;;;;5053964;28;20091;-26
2022/08/24 02:37:09;;;;;;;70.07;54.58;;;13.90;99.90;;;;;;5053206;28;20071;-26
2022/08/24 02:39:35;;;;;;;110.45;71.80;;;13.90;99.90;;;;;;5052394;28;20053;-26
2022/08/24 02:42:00;;;;;;;84.95;57.40;;;16.70;99.90;;;;;;5052556;28;20394;-26
2022/08/24 02:44:26;;;;;;;69.75;55.05;;;14.40;99.90;;;;;;5052197;28;20037;-26
2022/08/24 02:46:52;;;;;;;72.72;57.35;;;14.40;99.90;;;;;;5052453;28;20041;-26
2022/08/24 02:49:20;;;;;;;89.40;63.85;;;14.50;99.90;;;;;;5051185;28;20079;-26
2022/08/24 02:51:47;;;;;;;115.47;75.72;;;14.10;99.90;;;;;;5053335;28;20053;-26
2022/08/24 02:54:19;;;;;;;88.07;66.82;;;14.50;99.90;;;;;;5053232;28;20483;-26
2022/08/24 02:56:46;;;;;;;82.80;58.47;;;16.90;99.90;;;;;;5053874;28;20045;-26
2022/08/24 02:59:12;;;;;;;74.88;54.47;;;16.40;99.90;;;;;;5051413;28;20076;-26
2022/08/24 03:01:38;;;;;;;80.85;57.05;;;15.00;99.90;;;;;;5052435;28;20407;-26
2022/08/24 03:04:05;;;;;;;101.00;66.88;;;16.50;99.90;;;;;;5053428;28;20119;-26
2022/08/24 03:06:31;;;;;;;103.00;67.05;;;14.10;99.90;;;;;;5052935;28;20061;-26
2022/08/24 03:08:57;;;;;;;119.80;71.93;;;14.20;99.90;;;;;;5052421;28;20395;-27
2022/08/24 03:11:24;;;;;;;92.40;59.78;;;14.30;99.90;;;;;;5051966;28;20483;-28
2022/08/24 03:13:49;;;;;;;101.18;63.25;;;14.60;99.90;;;;;;5051473;28;20124;-28
2022/08/24 03:16:15;;;;;;;114.70;71.03;;;15.30;99.90;;;;;;5052898;28;20128;-27
2022/08/24 03:18:42;;;;;;;104.05;69.63;;;14.50;99.90;;;;;;5050373;28;20154;-28
2022/08/24 03:21:09;;;;;;;101.45;66.10;;;17.00;99.90;;;;;;5050891;28;20041;-27
2022/08/24 03:23:35;;;;;;;96.10;62.72;;;16.50;99.90;;;;;;5051882;28;20049;-27
2022/08/24 03:26:01;;;;;;;97.07;61.55;;;14.70;99.90;;;;;;5050172;28;20102;-27
2022/08/24 03:28:28;;;;;;;118.28;72.03;;;16.80;99.90;;;;;;5054058;28;20110;-27
2022/08/24 03:30:53;;;;;;;126.72;77.20;;;15.70;99.90;;;;;;5049987;28;20041;-27
2022/08/24 03:33:19;;;;;;;138.75;79.00;;;17.10;99.90;;;;;;5051223;28;20502;-27
2022/08/24 03:35:45;;;;;;;111.18;67.88;;;15.60;99.90;;;;;;5035332;28;20059;-28
2022/08/24 03:38:12;;;;;;;124.70;69.80;;;16.50;99.90;;;;;;5056310;28;20099;-28
2022/08/24 03:40:39;;;;;;;129.38;79.90;;;14.70;99.90;;;;;;5057164;28;20055;-28
2022/08/24 03:43:05;;;;;;;124.47;62.30;;;16.90;99.90;;;;;;5054244;28;20509;-28
2022/08/24 03:45:31;;;;;;;1391.25;138.93;;;14.40;99.90;;;;;;5056170;28;20132;-28
2022/08/24 03:47:59;;;;;;;1052.82;95.53;;;16.90;99.90;;;;;;5055542;28;20133;-28
2022/08/24 03:50:26;;;;;;;1632.72;135.30;;;13.90;99.90;;;;;;5054066;28;20055;-29
2022/08/24 03:52:52;;;;;;;583.97;61.65;;;13.50;99.90;;;;;;5054337;28;20064;-29
2022/08/24 03:55:18;;;;;;;298.42;83.47;;;15.50;99.90;;;;;;5055392;28;20041;-28
2022/08/24 03:57:44;;;;;;;49.95;38.55;;;15.40;99.90;;;;;;5056044;28;20045;-28
2022/08/24 04:00:11;;;;;;;149.15;58.30;;;14.70;99.90;;;;;;5054989;28;20056;-29
2022/08/24 04:02:37;;;;;;;478.38;118.35;;;15.50;99.90;;;;;;5054584;28;20407;-28
2022/08/24 04:05:04;;;;;;;204.23;77.50;;;14.60;99.90;;;;;;5055397;28;20044;-28
2022/08/24 04:07:30;;;;;;;81.65;52.13;;;15.80;99.90;;;;;;5056183;28;20052;-29
2022/08/24 04:09:56;;;;;;;97.63;51.50;;;13.30;99.90;;;;;;5054960;28;20406;-28
2022/08/24 04:12:22;;;;;;;64.72;46.80;;;14.50;99.90;;;;;;5056382;28;20372;-28
2022/08/24 04:14:51;;;;;;;126.18;66.28;;;15.70;99.90;;;;;;5054051;28;20041;-28
2022/08/24 04:17:17;;;;;;;64.75;50.90;;;13.50;99.90;;;;;;5035832;28;20103;-27
2022/08/24 04:19:56;;;;;;;57.25;47.10;;;13.60;99.90;;;;;;5050989;28;20049;-28
2022/08/24 04:22:29;;;;;;;73.28;50.13;;;14.60;99.90;;;;;;5049136;28;20053;-28
2022/08/24 04:24:55;;;;;;;66.47;51.35;;;13.30;99.90;;;;;;5050777;28;20041;-27
2022/08/24 04:27:21;;;;;;;65.72;49.28;;;13.30;99.90;;;;;;5055251;28;20076;-27
2022/08/24 04:29:47;;;;;;;62.45;48.75;;;13.30;99.90;;;;;;5070913;28;20094;-27
2022/08/24 04:32:14;;;;;;;55.33;45.45;;;14.70;99.90;;;;;;5055289;28;20037;-28
2022/08/24 04:34:42;;;;;;;65.13;51.80;;;16.20;99.90;;;;;;5054205;28;20056;-28
2022/08/24 04:37:08;;;;;;;65.85;52.15;;;13.50;99.90;;;;;;5055221;28;20083;-28
2022/08/24 04:39:33;;;;;;;70.65;52.28;;;16.30;99.90;;;;;;5054582;28;20084;-27
2022/08/24 04:41:59;;;;;;;100.32;68.88;;;16.20;99.90;;;;;;5055172;28;20044;-27
2022/08/24 04:44:25;;;;;;;87.60;58.85;;;16.70;99.90;;;;;;5053038;28;20048;-27
2022/08/24 04:46:51;;;;;;;92.95;63.58;;;16.90;99.90;;;;;;5053980;28;20041;-27
2022/08/24 04:49:16;;;;;;;88.22;61.35;;;17.10;99.90;;;;;;5040088;28;20488;-27
2022/08/24 04:51:42;;;;;;;98.03;67.53;;;17.20;99.90;;;;;;5032735;28;20052;-29
2022/08/24 04:54:08;;;;;;;105.35;69.13;;;14.50;99.90;;;;;;5052992;28;20061;-28
2022/08/24 04:56:37;;;;;;;88.93;59.70;;;14.80;99.90;;;;;;5053762;28;20049;-29
2022/08/24 04:59:04;;;;;;;78.45;58.05;;;14.70;99.90;;;;;;5041451;28;20513;-27
2022/08/24 05:01:31;;;;;;;67.45;50.58;;;16.10;99.90;;;;;;5033634;28;20407;-28
2022/08/24 05:03:57;;;;;;;67.20;52.40;;;17.20;99.90;;;;;;5050113;28;20098;-27
2022/08/24 05:06:29;;;;;;;68.75;53.13;;;16.50;99.90;;;;;;5052654;28;20387;-27
2022/08/24 05:08:59;;;;;;;56.83;47.42;;;14.70;99.90;;;;;;5054112;28;20115;-27
2022/08/24 05:11:25;;;;;;;91.85;58.42;;;17.20;99.90;;;;;;5052548;28;20119;-27
2022/08/24 05:13:55;;;;;;;88.90;56.25;;;16.20;99.90;;;;;;5053137;28;20060;-27
2022/08/24 05:16:23;;;;;;;89.75;58.90;;;17.10;99.90;;;;;;5053237;28;20499;-27
2022/08/24 05:18:49;;;;;;;90.45;56.72;;;17.30;99.90;;;;;;5053236;28;20116;-27
2022/08/24 05:21:22;;;;;;;108.95;67.70;;;16.30;99.90;;;;;;5053696;28;20120;-28
2022/08/24 05:23:48;;;;;;;117.70;70.28;;;14.60;99.90;;;;;;5052572;28;20057;-27
2022/08/24 05:26:21;;;;;;;124.32;72.10;;;14.70;99.90;;;;;;5053247;28;20399;-28
2022/08/24 05:28:47;;;;;;;137.95;80.50;;;17.40;99.90;;;;;;5052799;28;20083;-28
2022/08/24 05:31:15;;;;;;;115.50;71.53;;;17.70;99.90;;;;;;5043566;28;20121;-28
2022/08/24 05:33:41;;;;;;;125.65;75.05;;;17.40;99.90;;;;;;5042439;28;20100;-28
2022/08/24 05:36:17;;;;;;;126.40;76.47;;;17.80;99.90;;;;;;5054206;28;20107;-28
2022/08/24 05:38:43;;;;;;;87.22;58.88;;;15.60;99.90;;;;;;5053198;28;20044;-29
2022/08/24 05:41:09;;;;;;;120.90;72.22;;;17.90;99.90;;;;;;5053572;28;20449;-29
2022/08/24 05:43:34;;;;;;;115.85;70.70;;;17.40;99.90;;;;;;5053142;28;20094;-28
2022/08/24 05:46:00;;;;;;;91.57;61.97;;;16.30;99.90;;;;;;5054053;28;20445;-27
2022/08/24 05:48:26;;;;;;;95.65;59.80;;;15.20;99.90;;;;;;5052332;28;20486;-28
2022/08/24 05:50:57;;;;;;;83.78;56.00;;;17.00;99.90;;;;;;5034650;28;20095;-28
2022/08/24 05:53:23;;;;;;;90.55;60.03;;;15.70;99.90;;;;;;5052070;28;20048;-28
2022/08/24 05:55:49;;;;;;;86.10;58.88;;;18.30;99.90;;;;;;5052207;28;20124;-28
2022/08/24 05:58:15;;;;;;;89.35;61.05;;;18.30;99.90;;;;;;5051755;28;20041;-28
2022/08/24 06:00:44;;;;;;;75.88;59.00;;;18.30;99.90;;;;;;5034702;28;20122;-29
2022/08/24 06:03:12;;;;;;;83.90;58.25;;;15.70;99.90;;;;;;5053067;28;20051;-28
2022/08/24 06:05:40;;;;;;;84.50;59.72;;;17.80;99.90;;;;;;5053066;28;20403;-28
2022/08/24 06:08:07;;;;;;;76.47;58.72;;;16.50;99.90;;;;;;5051353;28;20059;-28
2022/08/24 06:10:41;;;;;;;77.25;56.72;;;18.80;99.90;;;;;;5050075;28;20116;-28
2022/08/24 06:13:07;;;;;;;79.00;56.78;;;16.10;99.90;;;;;;5052822;28;20045;-28
2022/08/24 06:15:34;;;;;;;81.90;57.97;;;18.80;99.90;;;;;;5052872;28;20051;-28
2022/08/24 06:17:59;;;;;;;82.05;57.63;;;18.90;99.90;;;;;;5051705;28;20475;-28
2022/08/24 06:20:25;;;;;;;74.68;58.33;;;19.10;99.90;;;;;;5052022;28;20041;-29
2022/08/24 06:22:51;;;;;;;71.05;58.20;;;19.20;99.90;;;;;;5050239;28;20495;-28
2022/08/24 06:28:01;;;;;;;68.40;55.83;;;18.70;99.90;;;;;;5052010;28;20449;-28
2022/08/24 06:30:27;;;;;;;74.72;61.10;;;16.90;99.90;;;;;;5052390;28;20037;-28
2022/08/24 06:32:55;;;;;;;60.78;50.13;;;17.90;99.90;;;;;;5047807;28;20038;-28
2022/08/24 06:35:20;;;;;;;62.28;50.90;;;16.90;99.90;;;;;;5041390;28;20053;-28
2022/08/24 06:37:46;;;;;;;60.55;49.90;;;18.20;99.90;;;;;;5038003;28;20037;-29
2022/08/24 06:40:12;;;;;;;61.42;49.30;;;19.60;99.90;;;;;;5037192;28;20450;-29
2022/08/24 06:42:38;;;;;;;55.35;49.35;;;18.40;99.90;;;;;;5044024;28;20055;-29
2022/08/24 06:45:03;;;;;;;55.45;46.20;;;17.90;99.90;;;;;;5052240;28;20070;-29
2022/08/24 06:47:31;;;;;;;47.72;42.45;;;19.30;99.90;;;;;;5053211;28;20096;-29
2022/08/24 06:49:58;;;;;;;50.60;42.13;;;20.00;99.90;;;;;;5053307;28;20048;-28
2022/08/24 06:52:29;;;;;;;44.30;39.78;;;20.10;99.90;;;;;;5052272;28;20057;-29
2022/08/24 06:54:55;;;;;;;43.15;37.85;;;18.70;99.90;;;;;;5053850;28;20462;-29
2022/08/24 06:57:25;;;;;;;36.95;33.10;;;19.30;99.90;;;;;;5052629;28;20045;-28
2022/08/24 06:59:51;;;;;;;34.42;30.90;;;18.40;99.90;;;;;;5035726;28;20056;-28
2022/08/24 07:02:18;;;;;;;33.28;29.95;;;18.90;99.90;;;;;;5052120;28;20045;-29
2022/08/24 07:04:44;;;;;;;30.02;27.08;;;20.30;99.90;;;;;;5053200;28;20380;-29
2022/08/24 07:07:10;;;;;;;30.00;26.85;;;19.20;99.90;;;;;;5051689;28;20107;-29
2022/08/24 07:09:36;;;;;;;29.95;25.98;;;19.30;99.90;;;;;;5051897;28;20045;-28
2022/08/24 07:12:03;;;;;;;26.25;23.75;;;19.70;99.90;;;;;;5056634;28;20044;-28
2022/08/24 07:14:29;;;;;;;31.55;26.13;;;20.60;99.90;;;;;;5056891;28;20479;-29
2022/08/24 07:16:55;;;;;;;28.67;25.83;;;19.60;99.90;;;;;;5056815;28;20059;-28
2022/08/24 07:19:21;;;;;;;33.05;24.85;;;20.30;99.90;;;;;;5056043;28;20135;-28
2022/08/24 07:21:47;;;;;;;26.25;23.17;;;20.80;99.90;;;;;;5056753;28;20124;-28
2022/08/24 07:24:13;;;;;;;24.77;22.23;;;20.10;99.90;;;;;;5040049;28;20041;-29
2022/08/24 07:26:39;;;;;;;25.65;20.50;;;21.00;99.90;;;;;;5057536;28;20049;-28
2022/08/24 07:32:10;;;;;;;17.20;15.52;;;20.70;1.00;;;;;;5070961;28;20397;-27
2022/08/24 07:34:36;;;;;;;16.98;15.18;;;21.20;99.90;;;;;;5071343;28;20506;-27
2022/08/24 07:37:02;;;;;;;17.10;14.85;;;21.20;99.90;;;;;;5068610;28;20416;-27
2022/08/24 07:39:29;;;;;;;18.27;13.60;;;21.20;9.70;;;;;;5049794;28;20051;-27
2022/08/24 07:41:56;;;;;;;13.93;12.30;;;21.40;1.00;;;;;;5049237;28;20376;-28
2022/08/24 07:44:22;;;;;;;13.45;12.00;;;21.90;99.90;;;;;;5050725;28;20096;-27
2022/08/24 07:46:48;;;;;;;15.48;11.85;;;21.90;1.00;;;;;;5050389;28;20041;-27
2022/08/24 07:49:14;;;;;;;17.23;12.68;;;21.90;1.00;;;;;;5046999;28;20499;-26
2022/08/24 07:51:42;;;;;;;14.43;12.48;;;22.20;99.90;;;;;;5033333;28;20476;-26
2022/08/24 07:54:08;;;;;;;15.98;12.70;;;22.10;99.90;;;;;;5049417;28;20526;-29
2022/08/24 07:56:34;;;;;;;13.43;11.93;;;22.30;81.80;;;;;;5051350;28;20071;-26
2022/08/24 07:59:00;;;;;;;15.02;12.43;;;22.40;1.00;;;;;;5050196;28;20483;-26
2022/08/24 08:01:36;;;;;;;14.43;11.25;;;22.70;1.00;;;;;;5050052;28;20086;-26
2022/08/24 08:04:02;;;;;;;12.43;10.25;;;22.70;1.00;;;;;;5050526;28;20045;-26
2022/08/24 08:06:28;;;;;;;14.55;10.38;;;22.80;99.90;;;;;;5050027;28;20120;-26
2022/08/24 08:08:58;;;;;;;12.07;9.85;;;23.00;99.90;;;;;;5049447;28;20049;-26
2022/08/24 08:11:24;;;;;;;13.77;10.98;;;23.00;99.90;;;;;;5048508;28;20526;-26
2022/08/24 08:13:50;;;;;;;14.73;12.05;;;23.20;99.90;;;;;;5049123;28;20045;-26
2022/08/24 08:16:23;;;;;;;14.00;11.48;;;23.40;99.90;;;;;;5050825;28;20045;-26
2022/08/24 08:18:49;;;;;;;18.02;11.52;;;23.40;99.90;;;;;;5049461;28;20458;-26
2022/08/24 08:24:13;;;;;;;13.85;12.35;;;23.60;75.20;;;;;;5044158;28;20046;-26
2022/08/24 08:26:40;;;;;;;12.40;11.13;;;23.60;91.80;;;;;;5037578;28;20037;-26
2022/08/24 08:29:09;;;;;;;16.48;11.68;;;23.70;47.10;;;;;;5048937;28;20053;-26
2022/08/24 08:31:36;;;;;;;15.85;11.48;;;23.90;1.00;;;;;;5047606;28;20061;-26
2022/08/24 08:34:03;;;;;;;11.93;10.27;;;24.00;1.00;;;;;;5049942;28;20064;-26
2022/08/24 08:36:31;;;;;;;11.82;9.80;;;24.10;1.00;;;;;;5049385;28;20045;-26
2022/08/24 08:38:57;;;;;;;10.55;8.60;;;24.20;1.00;;;;;;5048637;28;20055;-26
2022/08/24 08:41:42;;;;;;;12.20;9.95;;;24.30;1.00;;;;;;5049562;28;20382;-26
2022/08/24 08:44:48;;;;;;;9.73;8.55;;;24.40;99.90;;;;;;5037098;28;20053;-25
2022/08/24 08:47:42;;;;;;;12.82;8.30;;;24.50;99.90;;;;;;5035020;28;20496;-26
2022/08/24 08:50:08;;;;;;;13.65;9.77;;;24.50;99.90;;;;;;5042560;28;20045;-26
2022/08/24 08:53:10;;;;;;;11.65;9.32;;;24.60;99.90;;;;;;5045464;28;20046;-26
2022/08/24 08:55:49;;;;;;;10.87;9.27;;;24.70;99.90;;;;;;5045284;28;20056;-25
2022/08/24 08:58:36;;;;;;;15.77;9.05;;;24.90;99.90;;;;;;5036821;28;20308;-25
2022/08/24 09:01:32;;;;;;;11.00;8.50;;;25.10;81.50;;;;;;5032062;28;20052;-26
2022/08/24 09:04:16;;;;;;;12.30;8.88;;;25.10;99.90;;;;;;5034788;28;20486;-26
2022/08/24 09:07:22;;;;;;;12.10;8.43;;;25.30;99.90;;;;;;5031415;28;20130;-26
2022/08/24 09:10:06;;;;;;;13.20;7.60;;;25.80;99.90;;;;;;5034848;28;20509;-26
2022/08/24 09:12:59;;;;;;;12.23;6.90;;;26.90;99.90;;;;;;5035838;28;20572;-26
2022/08/24 09:16:15;;;;;;;10.82;6.40;;;27.60;99.90;;;;;;5037081;28;20077;-26
2022/08/24 09:19:26;;;;;;;7.72;6.57;;;28.30;1.00;;;;;;5035898;28;20400;-26
2022/08/24 09:22:19;;;;;;;7.82;6.43;;;29.20;31.60;;;;;;5000306;28;21191;-26
2022/08/24 09:24:53;;;;;;;8.07;6.18;;;29.70;99.90;;;;;;5033601;28;20073;-26
2022/08/24 09:27:28;;;;;;;7.80;6.50;;;29.60;99.90;;;;;;5035587;28;20399;-25
2022/08/24 09:30:03;;;;;;;8.25;5.97;;;29.80;99.90;;;;;;5035296;28;20157;-25
2022/08/24 09:32:57;;;;;;;8.30;4.70;;;30.10;99.90;;;;;;5035610;28;20056;-25
2022/08/24 09:35:34;;;;;;;9.65;5.13;;;30.20;99.90;;;;;;5034412;28;20502;-26
2022/08/24 09:38:21;;;;;;;6.57;4.70;;;30.60;99.90;;;;;;5035716;28;20045;-26
2022/08/24 09:41:14;;;;;;;10.65;4.53;;;30.50;90.10;;;;;;5034604;28;20041;-25
2022/08/24 09:44:13;;;;;;;6.00;4.55;;;30.70;1.00;;;;;;5035448;28;20480;-25
2022/08/24 09:46:51;;;;;;;6.78;3.33;;;30.80;1.00;;;;;;5034203;28;20570;-26
2022/08/24 09:49:39;;;;;;;5.63;3.22;;;30.80;12.20;;;;;;5035933;28;20384;-25
2022/08/24 09:52:33;;;;;;;8.85;3.25;;;30.70;1.00;;;;;;5033938;28;20049;-25
2022/08/24 09:55:12;;;;;;;6.22;2.88;;;31.00;1.00;;;;;;5033462;28;20045;-25
2022/08/24 09:57:57;;;;;;;5.60;3.63;;;30.80;1.00;;;;;;5034962;28;20056;-25
2022/08/24 10:00:41;;;;;;;5.28;3.08;;;30.90;1.00;;;;;;5035867;28;20037;-25
2022/08/24 10:03:20;;;;;;;8.63;3.60;;;31.10;1.00;;;;;;5034684;28;20494;-25
2022/08/24 10:06:05;;;;;;;7.47;3.22;;;31.40;1.00;;;;;;5034032;28;20045;-26
2022/08/24 10:08:40;;;;;;;7.03;3.05;;;31.70;1.00;;;;;;5035479;28;20045;-25
2022/08/24 10:11:27;;;;;;;7.78;2.40;;;32.10;1.00;;;;;;5034706;28;20132;-25
2022/08/24 10:14:08;;;;;;;4.10;2.45;;;31.90;1.00;;;;;;5034812;28;20488;-25
2022/08/24 10:17:00;;;;;;;6.45;2.53;;;31.90;1.00;;;;;;5033841;28;20095;-26
2022/08/24 10:19:38;;;;;;;6.18;2.00;;;31.80;1.00;;;;;;5017825;28;20373;-25
2022/08/24 10:22:18;;;;;;;8.00;2.70;;;31.80;10.00;;;;;;5035527;28;20045;-25
2022/08/24 10:25:09;;;;;;;3.50;1.90;;;31.80;1.00;;;;;;5034580;28;20094;-25
2022/08/24 10:28:01;;;;;;;5.88;1.80;;;31.50;1.00;;;;;;5033184;28;20049;-25
2022/08/24 10:31:05;;;;;;;4.05;1.92;;;31.20;1.00;;;;;;5034772;28;20054;-25
2022/08/24 10:33:43;;;;;;;7.15;3.13;;;31.20;1.00;;;;;;5034509;28;20053;-25
2022/08/24 10:36:37;;;;;;;4.82;2.60;;;31.60;1.00;;;;;;5034406;28;20095;-26
2022/08/24 10:39:41;;;;;;;4.38;2.15;;;32.10;1.00;;;;;;5038130;28;20045;-26
2022/08/24 10:45:27;;;;;;;3.58;1.90;;;32.30;9.40;;;;;;5039770;28;20057;-26
2022/08/24 10:48:22;;;;;;;2.60;1.70;;;31.90;1.00;;;;;;5039390;28;20050;-25
2022/08/24 10:51:26;;;;;;;5.25;2.58;;;31.80;24.10;;;;;;5032800;28;20053;-26
2022/08/24 10:53:53;;;;;;;6.72;1.70;;;31.90;22.30;;;;;;4997604;28;20042;-25
2022/08/24 10:56:40;;;;;;;3.78;1.95;;;32.30;30.20;;;;;;4993600;28;20140;-25
2022/08/24 10:59:12;;;;;;;3.58;1.90;;;32.40;1.00;;;;;;5034071;28;20080;-25
2022/08/24 11:01:38;;;;;;;;;;;32.60;14.70;;;;;;5033042;28;20048;-25
2022/08/24 11:04:11;;;;;;;3.85;2.00;;;32.50;22.60;;;;;;5034034;28;20103;-25
2022/08/24 11:06:46;;;;;;;6.93;2.85;;;32.50;50.10;;;;;;5034277;28;20045;-25
2022/08/24 11:09:15;;;;;;;7.88;2.58;;;32.70;30.50;;;;;;5032346;28;20476;-26
2022/08/24 11:11:47;;;;;;;5.15;2.75;;;32.80;29.10;;;;;;5033176;28;20046;-25
2022/08/24 11:14:22;;;;;;;6.13;2.55;;;32.60;47.30;;;;;;5034680;28;20049;-25
2022/08/24 11:16:48;;;;;;;4.93;2.60;;;32.80;36.90;;;;;;5033056;28;20049;-26
2022/08/24 11:19:27;;;;;;;5.72;1.60;;;32.80;46.10;;;;;;5032923;28;20061;-26
2022/08/24 11:21:57;;;;;;;1.45;0.98;;;32.50;10.70;;;;;;5016308;28;20049;-26
2022/08/24 11:24:41;;;;;;;2.47;1.38;;;32.20;19.20;;;;;;5032438;28;20502;-25
2022/08/24 11:27:23;;;;;;;2.10;0.85;;;32.10;52.60;;;;;;5033425;28;20496;-25
2022/08/24 11:29:52;;;;;;;2.45;0.70;;;31.40;9.70;;;;;;5033944;28;20053;-25
2022/08/24 11:32:50;;;;;;;3.33;0.80;;;31.50;41.40;;;;;;5033807;28;20096;-26
2022/08/24 11:35:33;;;;;;;3.80;1.23;;;32.00;46.90;;;;;;5033481;28;20100;-25
2022/08/24 11:38:25;;;;;;;2.05;1.05;;;32.40;64.70;;;;;;5033523;28;20089;-25
2022/08/24 11:40:54;;;;;;;;;;;32.70;58.30;;;;;;5017057;28;20049;-25
2022/08/24 11:43:35;;;;;;;2.25;1.10;;;32.20;38.00;;;;;;5032364;28;20023;-25
2022/08/24 11:46:13;;;;;;;2.03;1.00;;;32.60;90.10;;;;;;5033695;28;20099;-25
2022/08/24 11:48:59;;;;;;;3.72;1.10;;;33.20;94.10;;;;;;5030497;28;20426;-26
2022/08/24 11:51:30;;;;;;;3.72;0.80;;;34.00;87.10;;;;;;5033298;28;20034;-26
2022/08/24 11:54:04;;;;;;;5.22;1.00;;;34.40;80.50;;;;;;5041139;28;20049;-26
2022/08/24 11:57:01;;;;;;;3.83;0.98;;;34.40;86.70;;;;;;5018295;28;20056;-25
2022/08/24 12:00:05;;;;;;;2.05;0.80;;;34.30;94.10;;;;;;5028315;28;20046;-26
2022/08/24 12:02:59;;;;;;;5.05;0.88;;;33.50;81.00;;;;;;5022433;28;20053;-26
2022/08/24 12:05:55;;;;;;;4.60;0.90;;;32.70;36.50;;;;;;5032713;28;20068;-25
2022/08/24 12:08:33;;;;;;;5.40;1.15;;;31.70;15.60;;;;;;5032026;28;20427;-25
2022/08/24 12:11:16;;;;;;;2.05;0.90;;;31.00;6.50;;;;;;5032922;28;20052;-25
2022/08/24 12:14:01;;;;;;;2.75;0.80;;;31.00;28.60;;;;;;5029005;28;20045;-26
2022/08/24 12:16:38;;;;;;;3.35;0.90;;;31.30;20.20;;;;;;5030276;28;20125;-26
2022/08/24 12:19:28;;;;;;;3.33;1.70;;;32.20;90.40;;;;;;5036159;28;20073;-26
2022/08/24 12:21:57;;;;;;;2.22;0.80;;;33.40;59.60;;;;;;5029726;28;20045;-26
2022/08/24 12:24:32;;;;;;;1.52;1.30;;;34.40;99.90;;;;;;5018121;28;20053;-26
2022/08/24 12:27:25;;;;;;;3.30;0.70;;;34.10;96.40;;;;;;5036090;28;20454;-26
2022/08/24 12:30:01;;;;;;;3.35;1.08;;;33.40;70.80;;;;;;5034876;28;20080;-26
2022/08/24 12:32:37;;;;;;;1.85;0.73;;;32.60;50.30;;;;;;5035973;28;20042;-26
2022/08/24 12:35:22;;;;;;;3.50;0.90;;;32.00;42.30;;;;;;5008374;28;20052;-26
2022/08/24 12:37:57;;;;;;;3.25;0.88;;;31.30;29.30;;;;;;5045111;28;20056;-26
2022/08/24 12:40:40;;;;;;;2.58;0.80;;;30.90;21.70;;;;;;5035641;28;20132;-26
2022/08/24 12:43:19;;;;;;;3.47;0.70;;;30.90;1.00;;;;;;5034582;28;20411;-25
2022/08/24 12:45:45;;;;;;;1.40;0.52;;;31.10;1.00;;;;;;5035277;28;20060;-25
2022/08/24 12:48:38;;;;;;;1.25;0.82;;;31.60;19.30;;;;;;5034557;28;20050;-26
2022/08/24 12:51:15;;;;;;;2.45;0.68;;;31.50;2.10;;;;;;5034452;28;20056;-26
2022/08/24 12:54:00;;;;;;;3.22;0.52;;;31.40;1.00;;;;;;5033185;28;20052;-26
2022/08/24 12:56:52;;;;;;;3.58;1.02;;;31.30;1.00;;;;;;5037155;28;20112;-25
2022/08/24 12:59:50;;;;;;;1.08;0.98;;;30.80;6.00;;;;;;5017309;28;20057;-26
2022/08/24 13:02:16;;;;;;;4.15;1.25;;;30.20;1.00;;;;;;5049637;28;20434;-26
2022/08/24 13:04:48;;;;;;;3.70;1.40;;;30.30;1.00;;;;;;5036120;28;20053;-25
2022/08/24 13:07:20;;;;;;;2.35;0.70;;;30.90;1.00;;;;;;5034345;28;20045;-26
2022/08/24 13:09:52;;;;;;;2.08;0.90;;;31.40;1.00;;;;;;5034983;28;20053;-26
2022/08/24 13:12:38;;;;;;;;;;;32.30;1.00;;;;;;5034485;28;20046;-26
2022/08/24 13:15:21;;;;;;;3.60;1.10;;;33.20;1.00;;;;;;5022730;28;19971;-26